createdAt,value
2016-08-30T00:00:31.901Z,0
2016-08-30T00:01:30.787Z,0
2016-08-30T00:02:32.094Z,0
2016-08-30T00:03:29.005Z,0
2016-08-30T00:04:29.691Z,0
2016-08-30T00:05:28.219Z,0
2016-08-30T00:06:29.695Z,0
2016-08-30T00:07:29.436Z,0
2016-08-30T00:08:29.406Z,0
2016-08-30T00:09:29.547Z,0
2016-08-30T00:10:29.357Z,0
2016-08-30T00:11:29.457Z,0
2016-08-30T00:12:29.212Z,0
2016-08-30T00:13:29.366Z,0
2016-08-30T00:14:29.558Z,0
2016-08-30T00:15:28.618Z,0
2016-08-30T00:16:29.038Z,0
2016-08-30T00:17:29.189Z,0
2016-08-30T00:18:29.038Z,0
2016-08-30T00:19:29.297Z,0
2016-08-30T00:20:29.192Z,0
2016-08-30T00:21:28.799Z,0
2016-08-30T00:22:28.958Z,0
2016-08-30T00:23:28.712Z,0
2016-08-30T00:24:28.865Z,0
2016-08-30T00:25:27.928Z,0
2016-08-30T00:26:28.788Z,0
2016-08-30T00:27:28.527Z,0
2016-08-30T00:28:28.889Z,0
2016-08-30T00:29:28.463Z,0
2016-08-30T00:30:28.396Z,0
2016-08-30T00:31:26.966Z,0
2016-08-30T00:32:28.333Z,0
2016-08-30T00:33:28.466Z,0
2016-08-30T00:34:27.016Z,0
2016-08-30T00:35:28.177Z,0
2016-08-30T00:36:28.324Z,0
2016-08-30T00:37:28.120Z,0
2016-08-30T00:38:27.323Z,0
2016-08-30T00:39:28.003Z,0
2016-08-30T00:40:27.945Z,0
2016-08-30T00:41:27.906Z,0
2016-08-30T00:42:27.737Z,0
2016-08-30T00:43:27.827Z,0
2016-08-30T00:44:27.472Z,0
2016-08-30T00:45:27.718Z,0
2016-08-30T00:46:27.870Z,0
2016-08-30T00:47:27.634Z,0
2016-08-30T00:48:27.827Z,0
2016-08-30T00:49:27.553Z,0
2016-08-30T00:50:27.154Z,0
2016-08-30T00:51:27.647Z,0
2016-08-30T00:52:26.686Z,0
2016-08-30T00:53:27.344Z,0
2016-08-30T00:54:27.517Z,0
2016-08-30T00:55:26.566Z,0
2016-08-30T00:56:27.206Z,0
2016-08-30T00:57:27.165Z,0
2016-08-30T00:58:27.336Z,0
2016-08-30T00:59:25.682Z,0
2016-08-30T01:00:27.115Z,0
2016-08-30T01:01:27.197Z,0
2016-08-30T01:02:26.259Z,0
2016-08-30T01:03:26.896Z,0
2016-08-30T01:04:26.846Z,0
2016-08-30T01:05:26.796Z,0
2016-08-30T01:06:26.954Z,0
2016-08-30T01:07:25.507Z,0
2016-08-30T01:08:26.687Z,0
2016-08-30T01:09:26.626Z,0
2016-08-30T01:10:26.283Z,0
2016-08-30T01:11:26.532Z,0
2016-08-30T01:12:25.787Z,0
2016-08-30T01:13:26.436Z,0
2016-08-30T01:14:26.397Z,0
2016-08-30T01:15:26.855Z,0
2016-08-30T01:16:25.600Z,0
2016-08-30T01:17:26.268Z,0
2016-08-30T01:18:26.627Z,0
2016-08-30T01:19:25.464Z,0
2016-08-30T01:20:26.517Z,0
2016-08-30T01:21:26.287Z,0
2016-08-30T01:22:25.355Z,0
2016-08-30T01:23:25.483Z,0
2016-08-30T01:24:25.945Z,0
2016-08-30T01:25:25.988Z,0
2016-08-30T01:26:25.901Z,0
2016-08-30T01:27:25.794Z,0
2016-08-30T01:28:25.754Z,0
2016-08-30T01:29:26.107Z,0
2016-08-30T01:30:25.145Z,0
2016-08-30T01:31:25.620Z,0
2016-08-30T01:32:25.077Z,0
2016-08-30T01:33:25.927Z,0
2016-08-30T01:34:25.866Z,0
2016-08-30T01:35:26.037Z,0
2016-08-30T01:36:25.389Z,0
2016-08-30T01:37:25.357Z,0
2016-08-30T01:38:25.941Z,0
2016-08-30T01:39:24.988Z,0
2016-08-30T01:40:25.210Z,0
2016-08-30T01:41:25.356Z,0
2016-08-30T01:42:25.503Z,0
2016-08-30T01:43:25.288Z,0
2016-08-30T01:44:25.027Z,0
2016-08-30T01:45:24.986Z,0
2016-08-30T01:46:24.942Z,0
2016-08-30T01:47:25.096Z,0
2016-08-30T01:48:24.837Z,0
2016-08-30T01:49:24.281Z,0
2016-08-30T01:50:24.957Z,0
2016-08-30T01:51:24.089Z,0
2016-08-30T01:52:24.647Z,0
2016-08-30T01:53:24.819Z,0
2016-08-30T01:54:23.888Z,0
2016-08-30T01:55:23.679Z,0
2016-08-30T01:56:24.466Z,0
2016-08-30T01:57:24.454Z,0
2016-08-30T01:58:23.698Z,0
2016-08-30T01:59:24.334Z,0
2016-08-30T02:00:24.279Z,0
2016-08-30T02:01:24.237Z,0
2016-08-30T02:02:24.416Z,0
2016-08-30T02:03:24.347Z,0
2016-08-30T02:04:24.140Z,0
2016-08-30T02:05:24.348Z,0
2016-08-30T02:06:24.047Z,0
2016-08-30T02:07:23.977Z,0
2016-08-30T02:08:23.247Z,0
2016-08-30T02:09:24.085Z,0
2016-08-30T02:10:23.171Z,0
2016-08-30T02:11:23.772Z,0
2016-08-30T02:12:23.936Z,0
2016-08-30T02:13:23.688Z,0
2016-08-30T02:14:22.937Z,0
2016-08-30T02:15:23.062Z,0
2016-08-30T02:16:22.849Z,0
2016-08-30T02:17:24.097Z,0
2016-08-30T02:18:23.897Z,0
2016-08-30T02:19:22.718Z,0
2016-08-30T02:20:22.886Z,0
2016-08-30T02:21:23.369Z,0
2016-08-30T02:22:23.277Z,0
2016-08-30T02:23:22.060Z,0
2016-08-30T02:24:23.599Z,0
2016-08-30T02:25:23.373Z,0
2016-08-30T02:26:23.287Z,0
2016-08-30T02:27:22.337Z,0
2016-08-30T02:28:23.194Z,0
2016-08-30T02:29:23.147Z,0
2016-08-30T02:30:22.897Z,0
2016-08-30T02:31:22.844Z,0
2016-08-30T02:32:22.097Z,0
2016-08-30T02:33:22.077Z,0
2016-08-30T02:34:22.729Z,0
2016-08-30T02:35:22.714Z,0
2016-08-30T02:36:22.672Z,0
2016-08-30T02:37:22.577Z,0
2016-08-30T02:38:22.738Z,0
2016-08-30T02:39:22.488Z,0
2016-08-30T02:40:21.992Z,0
2016-08-30T02:41:22.618Z,0
2016-08-30T02:42:22.416Z,0
2016-08-30T02:43:22.299Z,0
2016-08-30T02:44:22.246Z,0
2016-08-30T02:45:22.743Z,0
2016-08-30T02:46:22.379Z,0
2016-08-30T02:47:22.327Z,0
2016-08-30T02:48:21.637Z,0
2016-08-30T02:49:22.237Z,0
2016-08-30T02:50:22.299Z,0
2016-08-30T02:51:22.309Z,0
2016-08-30T02:52:21.313Z,0
2016-08-30T02:53:22.078Z,0
2016-08-30T02:54:21.794Z,0
2016-08-30T02:55:21.058Z,0
2016-08-30T02:56:22.529Z,0
2016-08-30T02:57:21.661Z,0
2016-08-30T02:58:21.617Z,0
2016-08-30T02:59:21.574Z,0
2016-08-30T03:00:21.041Z,0
2016-08-30T03:01:20.968Z,0
2016-08-30T03:02:20.728Z,0
2016-08-30T03:03:21.379Z,0
2016-08-30T03:04:21.349Z,0
2016-08-30T03:05:21.337Z,0
2016-08-30T03:06:21.486Z,0
2016-08-30T03:07:20.688Z,0
2016-08-30T03:08:21.316Z,0
2016-08-30T03:09:20.429Z,0
2016-08-30T03:10:21.458Z,0
2016-08-30T03:11:21.030Z,0
2016-08-30T03:12:20.984Z,0
2016-08-30T03:13:20.929Z,0
2016-08-30T03:14:20.880Z,0
2016-08-30T03:15:20.673Z,0
2016-08-30T03:16:20.776Z,0
2016-08-30T03:17:20.738Z,0
2016-08-30T03:18:21.089Z,0
2016-08-30T03:19:20.839Z,0
2016-08-30T03:20:19.201Z,0
2016-08-30T03:21:20.558Z,0
2016-08-30T03:22:20.505Z,0
2016-08-30T03:23:20.648Z,0
2016-08-30T03:24:20.649Z,0
2016-08-30T03:25:20.599Z,0
2016-08-30T03:26:20.552Z,0
2016-08-30T03:27:19.781Z,0
2016-08-30T03:28:20.215Z,0
2016-08-30T03:29:19.510Z,0
2016-08-30T03:30:20.139Z,0
2016-08-30T03:31:20.089Z,0
2016-08-30T03:32:19.385Z,0
2016-08-30T03:33:20.198Z,0
2016-08-30T03:34:19.959Z,0
2016-08-30T03:35:19.231Z,0
2016-08-30T03:36:19.550Z,0
2016-08-30T03:37:19.808Z,0
2016-08-30T03:38:19.966Z,0
2016-08-30T03:39:18.507Z,0
2016-08-30T03:40:19.878Z,0
2016-08-30T03:41:19.535Z,0
2016-08-30T03:42:19.575Z,0
2016-08-30T03:43:18.887Z,0
2016-08-30T03:44:19.489Z,0
2016-08-30T03:45:18.830Z,0
2016-08-30T03:46:19.399Z,0
2016-08-30T03:47:19.359Z,0
2016-08-30T03:48:19.328Z,0
2016-08-30T03:49:19.316Z,0
2016-08-30T03:50:18.897Z,0
2016-08-30T03:51:19.378Z,0
2016-08-30T03:52:19.259Z,0
2016-08-30T03:53:19.273Z,0
2016-08-30T03:54:18.427Z,0
2016-08-30T03:55:19.231Z,0
2016-08-30T03:56:19.147Z,0
2016-08-30T03:57:18.903Z,0
2016-08-30T03:58:19.061Z,0
2016-08-30T03:59:18.990Z,0
2016-08-30T04:00:19.348Z,0
2016-08-30T04:01:18.696Z,0
2016-08-30T04:02:18.861Z,0
2016-08-30T04:03:18.598Z,0
2016-08-30T04:04:18.062Z,0
2016-08-30T04:05:17.869Z,0
2016-08-30T04:06:18.509Z,0
2016-08-30T04:07:17.211Z,0
2016-08-30T04:08:18.597Z,0
2016-08-30T04:09:18.391Z,0
2016-08-30T04:10:17.978Z,0
2016-08-30T04:11:18.407Z,0
2016-08-30T04:12:18.188Z,0
2016-08-30T04:13:17.478Z,0
2016-08-30T04:14:18.298Z,0
2016-08-30T04:15:16.838Z,0
2016-08-30T04:16:17.294Z,0
2016-08-30T04:17:17.949Z,0
2016-08-30T04:18:32.274Z,4
2016-08-30T04:19:18.048Z,4
2016-08-30T04:20:17.824Z,0
2016-08-30T04:21:17.270Z,0
2016-08-30T04:22:17.939Z,4
2016-08-30T04:23:17.697Z,4
2016-08-30T04:24:17.851Z,4
2016-08-30T04:25:17.800Z,4
2016-08-30T04:26:17.722Z,4
2016-08-30T04:27:17.489Z,8
2016-08-30T04:28:17.479Z,4
2016-08-30T04:29:17.381Z,8
2016-08-30T04:30:16.848Z,8
2016-08-30T04:31:17.298Z,12
2016-08-30T04:32:17.248Z,8
2016-08-30T04:33:17.409Z,12
2016-08-30T04:34:17.366Z,12
2016-08-30T04:35:16.409Z,16
2016-08-30T04:36:17.269Z,16
2016-08-30T04:37:17.021Z,20
2016-08-30T04:38:17.579Z,20
2016-08-30T04:39:16.215Z,24
2016-08-30T04:40:16.878Z,24
2016-08-30T04:41:16.342Z,28
2016-08-30T04:42:16.802Z,32
2016-08-30T04:43:16.768Z,36
2016-08-30T04:44:17.085Z,40
2016-08-30T04:45:16.111Z,40
2016-08-30T04:46:15.896Z,44
2016-08-30T04:47:16.558Z,52
2016-08-30T04:48:15.800Z,52
2016-08-30T04:49:16.499Z,60
2016-08-30T04:50:16.148Z,64
2016-08-30T04:51:15.720Z,64
2016-08-30T04:52:16.306Z,72
2016-08-30T04:53:16.277Z,76
2016-08-30T04:54:16.450Z,80
2016-08-30T04:55:16.575Z,88
2016-08-30T04:56:16.140Z,92
2016-08-30T04:57:16.147Z,96
2016-08-30T04:58:16.027Z,104
2016-08-30T04:59:16.179Z,108
2016-08-30T05:00:15.939Z,116
2016-08-30T05:01:15.889Z,124
2016-08-30T05:02:15.867Z,136
2016-08-30T05:03:15.808Z,144
2016-08-30T05:04:15.276Z,152
2016-08-30T05:05:14.539Z,160
2016-08-30T05:06:14.966Z,164
2016-08-30T05:07:15.998Z,172
2016-08-30T05:08:15.569Z,176
2016-08-30T05:09:14.748Z,184
2016-08-30T05:10:15.639Z,188
2016-08-30T05:11:15.447Z,196
2016-08-30T05:12:15.382Z,204
2016-08-30T05:13:15.527Z,212
2016-08-30T05:14:15.288Z,220
2016-08-30T05:15:15.468Z,232
2016-08-30T05:16:15.206Z,240
2016-08-30T05:17:15.159Z,248
2016-08-30T05:18:14.406Z,244
2016-08-30T05:19:15.257Z,244
2016-08-30T05:20:13.705Z,248
2016-08-30T05:21:15.188Z,268
2016-08-30T05:22:15.117Z,304
2016-08-30T05:23:15.088Z,328
2016-08-30T05:24:15.720Z,340
2016-08-30T05:25:15.109Z,348
2016-08-30T05:26:15.343Z,356
2016-08-30T05:27:14.677Z,368
2016-08-30T05:28:14.626Z,372
2016-08-30T05:29:14.794Z,384
2016-08-30T05:30:14.549Z,388
2016-08-30T05:31:14.517Z,400
2016-08-30T05:32:14.447Z,404
2016-08-30T05:33:14.397Z,416
2016-08-30T05:34:13.714Z,420
2016-08-30T05:35:13.907Z,432
2016-08-30T05:36:13.129Z,436
2016-08-30T05:37:14.413Z,444
2016-08-30T05:38:13.866Z,452
2016-08-30T05:39:14.144Z,456
2016-08-30T05:40:13.388Z,464
2016-08-30T05:41:14.017Z,472
2016-08-30T05:42:14.046Z,480
2016-08-30T05:43:13.379Z,484
2016-08-30T05:44:13.901Z,488
2016-08-30T05:45:13.838Z,496
2016-08-30T05:46:13.136Z,504
2016-08-30T05:47:13.948Z,508
2016-08-30T05:48:13.015Z,512
2016-08-30T05:49:13.837Z,512
2016-08-30T05:50:13.213Z,520
2016-08-30T05:51:13.652Z,524
2016-08-30T05:52:13.718Z,536
2016-08-30T05:53:14.652Z,548
2016-08-30T05:57:11.186Z,584
2016-08-30T05:58:02.897Z,588
2016-08-30T05:59:02.694Z,596
2016-08-30T06:00:05.306Z,608
2016-08-30T06:01:20.904Z,620
2016-08-30T06:02:01.131Z,628
2016-08-30T06:03:00.446Z,644
2016-08-30T06:04:01.035Z,668
2016-08-30T06:05:01.160Z,692
2016-08-30T06:06:00.985Z,708
2016-08-30T06:07:04.255Z,724
2016-08-30T06:08:01.416Z,736
2016-08-30T06:09:11.609Z,752
2016-08-30T06:10:00.553Z,760
2016-08-30T06:11:02.355Z,776
2016-08-30T06:12:01.070Z,788
2016-08-30T06:13:00.620Z,804
2016-08-30T06:14:00.234Z,820
2016-08-30T06:15:03.127Z,836
2016-08-30T06:15:59.771Z,856
2016-08-30T06:17:01.500Z,876
2016-08-30T06:17:59.689Z,892
2016-08-30T06:19:00.539Z,908
2016-08-30T06:20:00.305Z,928
2016-08-30T06:21:00.538Z,944
2016-08-30T06:22:00.189Z,956
2016-08-30T06:22:59.529Z,976
2016-08-30T06:24:01.243Z,992
2016-08-30T06:25:06.568Z,1008
2016-08-30T06:26:02.008Z,1024
2016-08-30T06:26:59.266Z,1032
2016-08-30T06:28:00.785Z,1048
2016-08-30T06:29:01.647Z,1060
2016-08-30T06:30:00.499Z,1068
2016-08-30T06:30:59.960Z,1076
2016-08-30T06:32:01.099Z,1084
2016-08-30T06:33:01.052Z,1100
2016-08-30T06:33:59.619Z,1108
2016-08-30T06:35:00.994Z,1128
2016-08-30T06:36:00.230Z,1136
2016-08-30T06:37:00.388Z,1152
2016-08-30T06:37:59.481Z,1164
2016-08-30T06:39:00.998Z,1184
2016-08-30T06:40:01.241Z,1200
2016-08-30T06:41:00.908Z,1216
2016-08-30T06:42:00.190Z,1228
2016-08-30T06:43:01.201Z,1252
2016-08-30T06:44:00.767Z,1276
2016-08-30T06:45:00.627Z,1300
2016-08-30T06:46:00.471Z,1324
2016-08-30T06:47:00.536Z,1340
2016-08-30T06:47:59.667Z,1356
2016-08-30T06:48:59.688Z,1376
2016-08-30T06:49:59.591Z,1400
2016-08-30T06:51:00.682Z,1416
2016-08-30T06:51:59.702Z,1436
2016-08-30T06:52:59.565Z,1464
2016-08-30T06:53:58.718Z,1484
2016-08-30T06:54:59.785Z,1508
2016-08-30T06:56:00.019Z,1528
2016-08-30T06:56:59.957Z,1556
2016-08-30T06:57:59.926Z,1584
2016-08-30T06:58:59.175Z,1616
2016-08-30T06:59:59.174Z,1648
2016-08-30T07:00:59.390Z,1684
2016-08-30T07:01:59.088Z,1716
2016-08-30T07:03:00.184Z,1752
2016-08-30T07:04:00.661Z,1788
2016-08-30T07:04:59.853Z,1824
2016-08-30T07:06:00.003Z,1860
2016-08-30T07:06:58.822Z,1896
2016-08-30T07:07:59.482Z,1924
2016-08-30T07:08:59.542Z,1964
2016-08-30T07:09:58.009Z,2000
2016-08-30T07:10:59.362Z,2040
2016-08-30T07:11:58.814Z,2072
2016-08-30T07:12:58.976Z,2104
2016-08-30T07:13:59.805Z,2144
2016-08-30T07:14:59.568Z,2192
2016-08-30T07:15:59.337Z,2228
2016-08-30T07:16:59.418Z,2264
2016-08-30T07:17:59.041Z,2304
2016-08-30T07:18:59.251Z,2332
2016-08-30T07:19:57.117Z,2364
2016-08-30T07:20:58.213Z,2404
2016-08-30T07:21:58.262Z,2436
2016-08-30T07:22:57.455Z,2444
2016-08-30T07:23:57.786Z,2460
2016-08-30T07:24:56.640Z,2524
2016-08-30T07:25:58.640Z,2552
2016-08-30T07:26:58.375Z,2576
2016-08-30T07:27:58.195Z,2604
2016-08-30T07:28:58.059Z,2632
2016-08-30T07:29:58.189Z,2664
2016-08-30T07:30:58.048Z,2696
2016-08-30T07:31:58.394Z,2732
2016-08-30T07:32:58.757Z,2764
2016-08-30T07:33:58.349Z,2800
2016-08-30T07:34:58.860Z,2840
2016-08-30T07:35:58.443Z,2868
2016-08-30T07:36:57.506Z,2900
2016-08-30T07:37:58.411Z,2940
2016-08-30T07:38:57.768Z,2968
2016-08-30T07:39:58.462Z,3012
2016-08-30T07:40:58.015Z,3044
2016-08-30T07:41:57.463Z,3076
2016-08-30T07:42:56.903Z,3112
2016-08-30T07:43:56.583Z,3144
2016-08-30T07:44:56.513Z,3172
2016-08-30T07:45:58.385Z,3200
2016-08-30T07:46:57.721Z,3228
2016-08-30T07:47:55.651Z,3256
2016-08-30T07:48:56.965Z,3240
2016-08-30T07:49:58.154Z,3308
2016-08-30T07:50:57.019Z,3344
2016-08-30T07:51:57.845Z,3360
2016-08-30T07:52:58.069Z,3404
2016-08-30T07:53:56.070Z,3436
2016-08-30T07:54:56.877Z,3476
2016-08-30T07:55:57.356Z,3500
2016-08-30T07:56:57.966Z,3536
2016-08-30T07:58:00.305Z,3528
2016-08-30T07:58:56.545Z,3564
2016-08-30T07:59:57.200Z,3624
2016-08-30T08:00:57.577Z,3672
2016-08-30T08:01:55.914Z,3688
2016-08-30T08:02:56.359Z,3732
2016-08-30T08:03:56.835Z,3800
2016-08-30T08:04:57.005Z,3776
2016-08-30T08:05:56.161Z,3804
2016-08-30T08:06:56.855Z,3844
2016-08-30T08:07:54.873Z,3912
2016-08-30T08:08:56.759Z,3884
2016-08-30T08:09:56.845Z,3936
2016-08-30T08:10:56.855Z,3864
2016-08-30T08:11:56.613Z,3892
2016-08-30T08:12:57.460Z,3980
2016-08-30T08:13:56.893Z,3976
2016-08-30T08:14:56.465Z,3956
2016-08-30T08:15:55.295Z,3952
2016-08-30T08:16:55.746Z,3948
2016-08-30T08:17:55.581Z,4000
2016-08-30T08:18:57.495Z,3932
2016-08-30T08:19:55.776Z,3924
2016-08-30T08:20:55.503Z,3932
2016-08-30T08:21:55.536Z,3888
2016-08-30T08:22:56.144Z,3968
2016-08-30T08:23:55.490Z,4040
2016-08-30T08:24:56.036Z,3988
2016-08-30T08:25:56.052Z,3880
2016-08-30T08:26:55.273Z,3984
2016-08-30T08:27:55.687Z,4020
2016-08-30T08:28:56.052Z,4076
2016-08-30T08:29:55.903Z,4108
2016-08-30T08:30:55.777Z,4164
2016-08-30T08:31:55.935Z,4140
2016-08-30T08:32:55.176Z,4120
2016-08-30T08:33:54.917Z,4156
2016-08-30T08:34:55.792Z,4164
2016-08-30T08:35:56.027Z,4204
2016-08-30T08:36:54.853Z,4160
2016-08-30T08:37:54.261Z,4116
2016-08-30T08:38:55.487Z,3948
2016-08-30T08:39:54.868Z,4208
2016-08-30T08:42:08.331Z,4196
2016-08-30T08:42:33.413Z,4196
2016-08-30T08:43:20.113Z,2600
2016-08-30T08:44:21.378Z,4204
2016-08-30T08:45:25.247Z,4136
2016-08-30T08:46:19.512Z,2484
2016-08-30T08:47:20.613Z,2016
2016-08-30T08:48:18.987Z,1804
2016-08-30T08:49:19.523Z,1424
2016-08-30T08:50:20.303Z,1084
2016-08-30T08:51:19.718Z,1052
2016-08-30T08:52:19.577Z,1112
2016-08-30T08:53:19.354Z,3760
2016-08-30T08:54:19.295Z,4384
2016-08-30T08:55:23.768Z,4392
2016-08-30T08:56:19.083Z,4412
2016-08-30T08:57:18.669Z,4492
2016-08-30T08:58:18.745Z,1096
2016-08-30T08:59:19.255Z,1320
2016-08-30T09:00:18.743Z,1176
2016-08-30T09:01:18.338Z,1560
2016-08-30T09:02:18.265Z,4224
2016-08-30T09:03:18.400Z,4348
2016-08-30T09:04:18.872Z,4324
2016-08-30T09:05:19.351Z,4228
2016-08-30T09:06:18.983Z,4148
2016-08-30T09:07:18.823Z,4268
2016-08-30T09:08:17.973Z,4144
2016-08-30T09:09:19.432Z,4172
2016-08-30T09:10:19.105Z,3960
2016-08-30T09:11:18.018Z,3864
2016-08-30T09:12:19.229Z,3824
2016-08-30T09:13:18.832Z,3880
2016-08-30T09:14:20.086Z,3896
2016-08-30T09:15:19.229Z,3828
2016-08-30T09:16:18.340Z,3360
2016-08-30T09:17:19.190Z,3900
2016-08-30T09:18:19.021Z,3224
2016-08-30T09:19:18.885Z,3936
2016-08-30T09:20:19.115Z,3944
2016-08-30T09:21:19.494Z,3960
2016-08-30T09:22:19.271Z,3988
2016-08-30T09:23:20.089Z,4032
2016-08-30T09:24:19.131Z,4036
2016-08-30T09:25:18.948Z,4032
2016-08-30T09:26:17.229Z,3988
2016-08-30T09:27:18.621Z,3528
2016-08-30T09:28:18.535Z,3516
2016-08-30T09:29:18.723Z,3824
2016-08-30T09:30:17.723Z,3860
2016-08-30T09:31:19.266Z,2564
2016-08-30T09:32:18.124Z,3976
2016-08-30T09:33:17.871Z,4024
2016-08-30T09:34:16.845Z,4068
2016-08-30T09:35:18.863Z,4104
2016-08-30T09:36:18.342Z,4064
2016-08-30T09:37:18.597Z,3988
2016-08-30T09:38:18.188Z,3936
2016-08-30T09:39:18.975Z,3848
2016-08-30T09:40:20.183Z,3872
2016-08-30T09:41:22.764Z,3868
2016-08-30T09:42:17.606Z,3844
2016-08-30T09:43:18.757Z,3800
2016-08-30T09:44:19.013Z,3772
2016-08-30T09:45:17.769Z,3792
2016-08-30T09:46:18.585Z,3832
2016-08-30T09:47:17.724Z,3812
2016-08-30T09:48:17.863Z,3808
2016-08-30T09:49:18.788Z,3840
2016-08-30T09:50:17.758Z,3796
2016-08-30T09:51:18.389Z,3648
2016-08-30T09:52:18.156Z,3720
2016-08-30T09:53:18.000Z,3732
2016-08-30T09:54:18.064Z,3732
2016-08-30T09:55:18.140Z,3740
2016-08-30T09:56:18.117Z,3796
2016-08-30T09:57:18.367Z,3680
2016-08-30T09:58:17.184Z,3620
2016-08-30T09:59:17.503Z,3680
2016-08-30T10:00:17.269Z,3704
2016-08-30T10:01:18.183Z,3680
2016-08-30T10:02:18.260Z,3684
2016-08-30T10:03:17.718Z,3644
2016-08-30T10:04:16.976Z,3588
2016-08-30T10:05:18.093Z,3628
2016-08-30T10:06:16.174Z,3644
2016-08-30T10:07:16.105Z,3592
2016-08-30T10:08:16.837Z,3572
2016-08-30T10:09:18.101Z,3548
2016-08-30T10:10:17.631Z,3520
2016-08-30T10:11:18.331Z,3512
2016-08-30T10:12:17.339Z,3508
2016-08-30T10:13:16.558Z,3516
2016-08-30T10:14:17.378Z,3532
2016-08-30T10:15:17.288Z,3524
2016-08-30T10:16:17.300Z,3500
2016-08-30T10:17:17.060Z,3472
2016-08-30T10:18:16.379Z,3472
2016-08-30T10:19:17.414Z,3492
2016-08-30T10:20:15.841Z,3496
2016-08-30T10:21:17.104Z,3496
2016-08-30T10:22:16.859Z,3508
2016-08-30T10:23:17.158Z,3488
2016-08-30T10:24:16.338Z,3476
2016-08-30T10:25:16.823Z,3472
2016-08-30T10:26:17.031Z,3452
2016-08-30T10:27:16.043Z,3448
2016-08-30T10:28:16.776Z,3448
2016-08-30T10:29:16.660Z,3464
2016-08-30T10:30:16.410Z,3480
2016-08-30T10:31:15.975Z,3504
2016-08-30T10:32:16.488Z,3484
2016-08-30T10:33:16.203Z,3256
2016-08-30T10:34:16.063Z,3360
2016-08-30T10:35:16.500Z,3396
2016-08-30T10:36:14.898Z,3404
2016-08-30T10:37:15.596Z,3360
2016-08-30T10:38:16.219Z,3272
2016-08-30T10:39:15.430Z,3108
2016-08-30T10:40:16.374Z,3140
2016-08-30T10:41:16.325Z,3152
2016-08-30T10:42:15.569Z,3176
2016-08-30T10:43:14.752Z,3512
2016-08-30T10:44:14.514Z,3032
2016-08-30T10:45:15.274Z,3072
2016-08-30T10:46:15.290Z,3064
2016-08-30T10:47:14.383Z,3096
2016-08-30T10:48:15.786Z,3096
2016-08-30T10:49:14.977Z,3084
2016-08-30T10:50:15.087Z,3056
2016-08-30T10:51:15.657Z,2784
2016-08-30T10:52:16.138Z,2840
2016-08-30T10:53:15.414Z,2824
2016-08-30T10:54:14.085Z,2908
2016-08-30T10:55:15.519Z,3108
2016-08-30T10:56:15.800Z,3124
2016-08-30T10:57:13.970Z,3104
2016-08-30T10:58:15.528Z,3084
2016-08-30T10:59:15.834Z,3080
2016-08-30T11:00:14.063Z,3096
2016-08-30T11:01:14.494Z,3092
2016-08-30T11:02:14.522Z,3080
2016-08-30T11:03:15.169Z,3060
2016-08-30T11:04:15.047Z,3076
2016-08-30T11:05:14.923Z,3084
2016-08-30T11:06:14.483Z,3076
2016-08-30T11:07:15.330Z,3084
2016-08-30T11:08:14.390Z,3020
2016-08-30T11:09:14.844Z,2992
2016-08-30T11:10:14.559Z,3012
2016-08-30T11:11:14.208Z,3040
2016-08-30T11:12:14.002Z,3156
2016-08-30T11:13:14.764Z,3180
2016-08-30T11:14:13.211Z,3188
2016-08-30T11:15:15.070Z,3216
2016-08-30T11:16:14.598Z,3220
2016-08-30T11:17:14.493Z,3212
2016-08-30T11:18:14.462Z,3212
2016-08-30T11:19:14.479Z,3200
2016-08-30T11:20:13.894Z,3180
2016-08-30T11:21:13.005Z,3212
2016-08-30T11:22:14.282Z,3224
2016-08-30T11:23:14.324Z,3256
2016-08-30T11:24:13.016Z,3272
2016-08-30T11:25:14.198Z,3292
2016-08-30T11:26:14.323Z,3280
2016-08-30T11:27:14.557Z,3252
2016-08-30T11:28:14.208Z,3224
2016-08-30T11:29:14.225Z,3240
2016-08-30T11:30:14.255Z,3240
2016-08-30T11:31:14.302Z,3212
2016-08-30T11:32:12.687Z,3344
2016-08-30T11:33:13.139Z,3244
2016-08-30T11:34:13.195Z,3144
2016-08-30T11:35:14.574Z,3572
2016-08-30T11:36:14.333Z,3572
2016-08-30T11:37:13.635Z,3568
2016-08-30T11:38:13.671Z,3556
2016-08-30T11:39:12.853Z,3564
2016-08-30T11:40:13.605Z,3588
2016-08-30T11:41:12.073Z,3620
2016-08-30T11:42:13.529Z,3608
2016-08-30T11:43:12.898Z,3548
2016-08-30T11:44:12.039Z,3584
2016-08-30T11:45:12.932Z,3588
2016-08-30T11:46:12.015Z,3628
2016-08-30T11:47:12.553Z,3652
2016-08-30T11:48:13.675Z,3684
2016-08-30T11:49:12.793Z,3704
2016-08-30T11:50:13.401Z,3668
2016-08-30T11:51:11.874Z,3652
2016-08-30T11:52:13.412Z,3680
2016-08-30T11:53:12.266Z,3708
2016-08-30T11:54:12.665Z,3736
2016-08-30T11:55:12.189Z,3740
2016-08-30T11:56:12.423Z,3732
2016-08-30T11:57:12.559Z,3720
2016-08-30T11:58:12.087Z,3708
2016-08-30T11:59:12.788Z,3688
2016-08-30T12:00:11.394Z,3688
2016-08-30T12:01:11.922Z,3744
2016-08-30T12:02:12.601Z,3764
2016-08-30T12:03:12.075Z,3728
2016-08-30T12:04:12.495Z,3760
2016-08-30T12:05:13.325Z,3776
2016-08-30T12:06:11.424Z,3808
2016-08-30T12:07:12.365Z,3732
2016-08-30T12:08:11.336Z,3768
2016-08-30T12:09:11.677Z,3768
2016-08-30T12:10:11.556Z,3748
2016-08-30T12:11:12.347Z,3772
2016-08-30T12:12:11.800Z,3816
2016-08-30T12:13:10.908Z,3844
2016-08-30T12:14:11.374Z,3856
2016-08-30T12:15:11.700Z,3864
2016-08-30T12:16:12.647Z,3860
2016-08-30T12:17:11.968Z,3900
2016-08-30T12:18:11.944Z,3868
2016-08-30T12:19:11.195Z,3880
2016-08-30T12:20:10.561Z,3900
2016-08-30T12:21:12.363Z,3908
2016-08-30T12:22:11.168Z,3912
2016-08-30T12:23:11.279Z,3860
2016-08-30T12:24:12.359Z,3856
2016-08-30T12:25:11.886Z,3848
2016-08-30T12:26:12.077Z,3772
2016-08-30T12:27:10.366Z,3860
2016-08-30T12:28:10.462Z,3864
2016-08-30T12:29:11.574Z,3920
2016-08-30T12:30:10.084Z,3928
2016-08-30T12:31:11.087Z,3936
2016-08-30T12:32:11.305Z,3940
2016-08-30T12:33:11.428Z,3980
2016-08-30T12:34:10.529Z,3992
2016-08-30T12:35:13.615Z,3996
2016-08-30T12:36:11.287Z,4004
2016-08-30T12:37:10.662Z,4028
2016-08-30T12:38:11.474Z,4028
2016-08-30T12:39:15.518Z,4032
2016-08-30T12:40:11.147Z,3984
2016-08-30T12:41:10.236Z,4040
2016-08-30T12:42:09.688Z,4012
2016-08-30T12:43:09.542Z,3924
2016-08-30T12:44:10.783Z,3952
2016-08-30T12:45:11.115Z,4020
2016-08-30T12:46:10.731Z,3976
2016-08-30T12:47:10.711Z,3940
2016-08-30T12:48:10.876Z,3936
2016-08-30T12:49:10.598Z,3980
2016-08-30T12:50:10.028Z,3980
2016-08-30T12:51:10.494Z,4100
2016-08-30T12:52:08.337Z,4112
2016-08-30T12:53:09.127Z,4064
2016-08-30T12:54:10.652Z,4080
2016-08-30T12:55:10.372Z,4080
2016-08-30T12:56:10.576Z,4080
2016-08-30T12:57:10.299Z,4108
2016-08-30T12:58:09.234Z,4152
2016-08-30T12:59:10.176Z,4056
2016-08-30T13:00:09.636Z,4048
2016-08-30T13:01:09.307Z,3988
2016-08-30T13:02:08.796Z,4200
2016-08-30T13:03:09.307Z,1312
2016-08-30T13:04:09.566Z,1324
2016-08-30T13:05:08.537Z,4264
2016-08-30T13:06:09.898Z,4292
2016-08-30T13:07:09.140Z,4324
2016-08-30T13:08:09.831Z,4328
2016-08-30T13:09:10.394Z,4276
2016-08-30T13:10:09.889Z,3136
2016-08-30T13:11:08.297Z,4196
2016-08-30T13:12:09.416Z,4432
2016-08-30T13:13:08.904Z,4448
2016-08-30T13:14:09.707Z,4396
2016-08-30T13:15:08.314Z,4484
2016-08-30T13:16:09.106Z,4484
2016-08-30T13:17:09.832Z,4480
2016-08-30T13:18:10.198Z,4544
2016-08-30T13:19:08.642Z,4564
2016-08-30T13:20:09.694Z,4536
2016-08-30T13:21:08.753Z,4540
2016-08-30T13:22:08.740Z,4412
2016-08-30T13:23:07.885Z,4428
2016-08-30T13:24:09.113Z,4408
2016-08-30T13:25:06.980Z,4308
2016-08-30T13:26:09.080Z,4476
2016-08-30T13:27:09.053Z,4464
2016-08-30T13:28:08.678Z,4480
2016-08-30T13:29:08.951Z,4596
2016-08-30T13:30:07.793Z,4640
2016-08-30T13:31:09.000Z,4572
2016-08-30T13:32:08.218Z,4576
2016-08-30T13:33:07.431Z,4528
2016-08-30T13:34:08.871Z,4484
2016-08-30T13:35:08.145Z,4548
2016-08-30T13:36:08.739Z,4632
2016-08-30T13:37:06.704Z,4772
2016-08-30T13:38:08.577Z,4780
2016-08-30T13:39:06.548Z,4800
2016-08-30T13:40:07.525Z,4804
2016-08-30T13:41:08.193Z,4816
2016-08-30T13:42:06.969Z,4836
2016-08-30T13:43:08.872Z,4876
2016-08-30T13:44:07.696Z,4872
2016-08-30T13:45:06.908Z,4876
2016-08-30T13:46:07.549Z,4896
2016-08-30T13:47:07.467Z,4908
2016-08-30T13:48:08.454Z,4912
2016-08-30T13:49:07.619Z,4892
2016-08-30T13:50:06.877Z,4892
2016-08-30T13:51:08.017Z,4912
2016-08-30T13:52:07.959Z,4952
2016-08-30T13:53:07.900Z,4948